Sitka, AK

10:58 PM AKST on February 27, 2017 (GMT -0900)
Sitka Rocky Gutierrez | | Change Station
Active Advisory: Winter Storm Warning

Elev 20 ft 57.05 °N, 135.36 °W | Updated 5 minutes ago

Overcast
Overcast
37 °F
Feels Like 29 °F
N
13
Wind Variable Wind from SE

Today
High -- | Low -- °F
--% Chance of Precip.
Yesterday
High -- | Low -- °F
Precip. -- in
Pressure 29.60 in
Visibility 10.0 miles
Clouds Mostly Cloudy 5500 ft
Overcast 7000 ft
Windchill 29 °F
Dew Point 20 °F
Humidity 50%
Rainfall 0.00 in
Snow Depth Not available.
6:58 AM 5:30 PM
Waxing Crescent, 4% visible
METAR PASI 280753Z 13011KT 10SM BKN055 OVC070 03/M07 A2960 RMK AO2 SLP024 T00281067
Pressure 29.60 in
Visibility 10.0 miles
Clouds Mostly Cloudy 5500 ft
Overcast 7000 ft
Windchill 29 °F
Dew Point 20 °F
Humidity 50%
Rainfall 0.00 in
Snow Depth Not available.
6:58 AM 5:30 PM
Waxing Crescent, 4% visible
METAR PASI 280753Z 13011KT 10SM BKN055 OVC070 03/M07 A2960 RMK AO2 SLP024 T00281067

Get Your Daily Forecast Email!

Thanks for signing up!

Be on the lookout for a verification email in your inbox.

You'll start receiving the daily forecast at 8 AM.

×

10-Day Weather Forecast

Almanac

Astronomy

Feb. 27, 2017 Rise Set
Actual Time
Civil Twilight
Nautical Twilight
Astronomical Twilight
Moon
Length of Visible Light
Length of Day
Tomorrow will be .
, % of the Moon is Illuminated

Today's Extremes

State Highs State Lows

Community

WunderPhotos

Upload Photos

1,962,540 photos uploaded!

WunderBlog® & News

Nearby

Air Quality

  Air Quality AQ Index Pollutant
Not available.

Snow Depth

Station Depth Elevation

Earthquake Activity

City Distance Mag. Time & Date
Minimum magnitude displayed is 2.5.

Coastal Water Temperatures

Place Temperature

Stations

Nearby Weather Stations

Station Location Temp. Windchill Dew Point Humidity Wind Precip. Elev Updated Type
                   

Watches & Warnings

Winter Storm Warning
Issued: 9:01 PM AKST Feb. 27, 2017 – National Weather Service

... Winter Storm Warning remains in effect until noon akst
Tuesday...

* location... most of the central and southern Panhandle
including the outer coast.

* Snow... 6 to 10 inches.

* Timing... snow will begin late tonight. Heavy snowfall will
persist through midday Tuesday. Light snow will continue
through Tuesday night.

* Impacts... travel will be hazardous. Heavy wet snow will be
difficult to manage.

Precautionary/preparedness actions...

A warning means that a winter storm is already occurring or
imminent. This storm could pose a threat to life and property.

This statement will be updated by 5 am akst Tuesday or sooner if
conditions warrant.